Time;durP1;ratioP1;P1;durP2;ratioP2;P2;SDS_P1;SDS_P2;PMS_P1;PMS_P2;Temp;Humidity;BMP_temperature;BMP_pressure;BME280_temperature;BME280_humidity;BME280_pressure;Samples;Min_cycle;Max_cycle;Signal;HPM_P1;HPM_P2
2023/06/14 00:00:07;;;;;;;1.40;1.27;;;;;;;;;;6244868;23;20178;-84
2023/06/14 00:02:37;;;;;;;3.07;2.57;;;;;;;;;;6244353;23;20172;-84
2023/06/14 00:05:06;;;;;;;2.00;1.33;;;;;;;;;;6243541;23;20229;-84
2023/06/14 00:07:36;;;;;;;1.87;1.73;;;;;;;;;;6244095;23;20200;-84
2023/06/14 00:10:04;;;;;;;1.40;0.83;;;;;;;;;;6244357;23;20200;-83
2023/06/14 00:12:33;;;;;;;1.03;1.03;;;;;;;;;;6244064;23;20183;-84
2023/06/14 00:15:02;;;;;;;2.03;1.33;;;;;;;;;;6244038;23;20178;-84
2023/06/14 00:17:31;;;;;;;4.90;4.60;;;;;;;;;;6244180;23;20269;-84
2023/06/14 00:20:03;;;;;;;0.73;0.73;;;;;;;;;;6244546;23;20210;-84
2023/06/14 00:22:32;;;;;;;0.40;0.40;;;;;;;;;;6243740;23;20267;-85
2023/06/14 00:25:01;;;;;;;3.33;0.83;;;;;;;;;;6244301;23;20206;-85
2023/06/14 00:27:46;;;;;;;1.43;1.33;;;;;;;;;;6244152;22;20227;-85
2023/06/14 00:30:15;;;;;;;0.67;0.67;;;;;;;;;;6243501;23;20237;-85
2023/06/14 00:32:44;;;;;;;0.40;0.40;;;;;;;;;;6244200;23;20179;-85
2023/06/14 00:35:17;;;;;;;0.67;0.67;;;;;;;;;;6244365;23;20248;-85
2023/06/14 00:37:45;;;;;;;1.60;1.50;;;;;;;;;;6244377;23;20186;-85
2023/06/14 00:40:14;;;;;;;0.97;0.97;;;;;;;;;;6243654;23;20208;-85
2023/06/14 00:42:44;;;;;;;0.47;0.47;;;;;;;;;;6244407;23;20182;-85
2023/06/14 00:45:12;;;;;;;1.10;0.73;;;;;;;;;;6244220;23;20174;-85
2023/06/14 00:47:43;;;;;;;0.57;0.50;;;;;;;;;;6243576;23;20175;-85
2023/06/14 00:50:11;;;;;;;0.97;0.97;;;;;;;;;;6243943;23;20186;-85
2023/06/14 00:52:41;;;;;;;1.07;1.07;;;;;;;;;;6244099;23;20167;-85
2023/06/14 00:55:10;;;;;;;0.77;0.77;;;;;;;;;;6243996;23;20206;-85
2023/06/14 00:57:39;;;;;;;0.57;0.57;;;;;;;;;;6245551;23;20180;-85
2023/06/14 01:00:12;;;;;;;1.80;1.17;;;;;;;;;;6245838;23;20233;-85
2023/06/14 01:02:41;;;;;;;1.87;1.17;;;;;;;;;;6245709;23;20171;-85
2023/06/14 01:05:10;;;;;;;1.10;1.10;;;;;;;;;;6245753;23;20180;-85
2023/06/14 01:07:47;;;;;;;1.20;1.17;;;;;;;;;;6246506;23;20207;-85
2023/06/14 01:10:22;;;;;;;1.13;1.13;;;;;;;;;;6245964;23;20178;-84
2023/06/14 01:12:54;;;;;;;0.73;0.73;;;;;;;;;;6245515;23;20239;-84
2023/06/14 01:15:23;;;;;;;2.20;2.03;;;;;;;;;;6245282;23;20174;-84
2023/06/14 01:17:53;;;;;;;0.90;0.90;;;;;;;;;;6245912;23;20201;-84
2023/06/14 01:20:22;;;;;;;12.33;2.23;;;;;;;;;;6245851;23;20175;-84
2023/06/14 01:22:54;;;;;;;1.03;1.03;;;;;;;;;;6244453;23;20200;-83
2023/06/14 01:25:23;;;;;;;0.50;0.50;;;;;;;;;;6245476;23;20174;-83
2023/06/14 01:27:52;;;;;;;1.47;1.43;;;;;;;;;;6245529;22;20221;-84
2023/06/14 01:30:22;;;;;;;1.37;1.03;;;;;;;;;;6245179;23;20186;-83
2023/06/14 01:32:51;;;;;;;0.60;0.60;;;;;;;;;;6244940;23;20237;-82
2023/06/14 01:35:20;;;;;;;0.43;0.43;;;;;;;;;;6245040;23;20202;-83
2023/06/14 01:37:49;;;;;;;1.43;1.43;;;;;;;;;;6245311;23;20167;-83
2023/06/14 01:40:20;;;;;;;0.50;0.50;;;;;;;;;;6245018;23;20292;-83
2023/06/14 01:42:50;;;;;;;3.83;1.47;;;;;;;;;;6245408;23;20179;-83
2023/06/14 01:45:19;;;;;;;1.73;1.63;;;;;;;;;;6244895;23;20261;-83
2023/06/14 01:47:47;;;;;;;1.73;1.57;;;;;;;;;;6244848;23;20198;-83
2023/06/14 01:50:16;;;;;;;1.57;1.20;;;;;;;;;;6244924;23;20171;-83
2023/06/14 01:52:46;;;;;;;1.03;1.03;;;;;;;;;;6245081;23;20183;-83
2023/06/14 01:55:17;;;;;;;4.97;1.53;;;;;;;;;;6244773;23;20248;-83
2023/06/14 01:57:47;;;;;;;4.43;1.80;;;;;;;;;;6244269;23;20205;-83
2023/06/14 02:00:18;;;;;;;1.67;1.53;;;;;;;;;;6245322;23;20174;-83
2023/06/14 02:02:46;;;;;;;1.10;1.10;;;;;;;;;;6245220;23;20208;-83
2023/06/14 02:05:18;;;;;;;2.03;1.37;;;;;;;;;;6244536;23;20179;-84
2023/06/14 02:07:47;;;;;;;0.80;0.80;;;;;;;;;;6244658;23;20281;-85
2023/06/14 02:10:17;;;;;;;1.03;1.03;;;;;;;;;;6245062;23;20206;-84
2023/06/14 02:12:45;;;;;;;0.63;0.63;;;;;;;;;;6244318;23;20176;-84
2023/06/14 02:15:18;;;;;;;1.70;1.23;;;;;;;;;;6244499;23;20191;-84
2023/06/14 02:17:46;;;;;;;0.30;0.30;;;;;;;;;;6244865;23;20167;-84
2023/06/14 02:20:15;;;;;;;5.47;2.07;;;;;;;;;;6245233;23;20177;-85
2023/06/14 02:22:44;;;;;;;1.97;1.80;;;;;;;;;;6244397;23;20171;-85
2023/06/14 02:25:12;;;;;;;0.70;0.70;;;;;;;;;;6245053;23;20235;-84
2023/06/14 02:27:41;;;;;;;1.10;0.97;;;;;;;;;;6244681;22;20209;-85
2023/06/14 02:30:10;;;;;;;0.43;0.43;;;;;;;;;;6244895;23;20183;-84
2023/06/14 02:32:40;;;;;;;0.40;0.40;;;;;;;;;;6244926;23;20195;-84
2023/06/14 02:35:09;;;;;;;0.93;0.93;;;;;;;;;;6245294;23;20183;-84
2023/06/14 02:37:38;;;;;;;0.50;0.50;;;;;;;;;;6245173;23;20197;-84
2023/06/14 02:40:08;;;;;;;1.20;1.20;;;;;;;;;;6244024;23;20209;-84
2023/06/14 02:42:37;;;;;;;0.87;0.87;;;;;;;;;;6244818;23;20189;-84
2023/06/14 02:45:08;;;;;;;2.43;1.33;;;;;;;;;;6244181;23;20170;-85
2023/06/14 02:47:37;;;;;;;1.37;1.27;;;;;;;;;;6244754;23;20191;-85
2023/06/14 02:50:08;;;;;;;0.40;0.40;;;;;;;;;;6244100;23;20223;-85
2023/06/14 02:52:36;;;;;;;1.53;1.43;;;;;;;;;;6244758;23;20229;-85
2023/06/14 02:55:06;;;;;;;1.03;1.03;;;;;;;;;;6244454;23;20177;-85
2023/06/14 02:57:35;;;;;;;0.90;0.90;;;;;;;;;;6244178;23;20166;-84
2023/06/14 03:00:04;;;;;;;2.30;2.10;;;;;;;;;;6244629;23;20185;-85
2023/06/14 03:02:32;;;;;;;1.83;1.73;;;;;;;;;;6244742;23;20172;-84
2023/06/14 03:05:02;;;;;;;1.60;1.37;;;;;;;;;;6244068;23;20179;-85
2023/06/14 03:07:32;;;;;;;0.93;0.90;;;;;;;;;;6244244;23;20191;-85
2023/06/14 03:10:01;;;;;;;3.57;1.50;;;;;;;;;;6244118;23;20302;-85
2023/06/14 03:12:29;;;;;;;1.30;1.23;;;;;;;;;;6244597;23;20183;-84
2023/06/14 03:15:01;;;;;;;1.30;1.20;;;;;;;;;;6243727;23;20181;-83
2023/06/14 03:17:33;;;;;;;3.10;1.60;;;;;;;;;;6244549;23;20265;-83
2023/06/14 03:20:01;;;;;;;0.97;0.63;;;;;;;;;;6244439;23;20189;-83
2023/06/14 03:22:32;;;;;;;2.93;2.70;;;;;;;;;;6244276;23;20227;-83
2023/06/14 03:25:04;;;;;;;1.47;1.23;;;;;;;;;;6243785;23;20197;-83
2023/06/14 03:27:33;;;;;;;1.03;0.93;;;;;;;;;;6244280;22;20201;-83
2023/06/14 03:30:01;;;;;;;1.63;1.33;;;;;;;;;;6244148;23;20189;-83
2023/06/14 03:32:33;;;;;;;1.83;1.47;;;;;;;;;;6243927;23;20177;-83
2023/06/14 03:35:01;;;;;;;2.03;1.70;;;;;;;;;;6244140;23;20179;-83
2023/06/14 03:37:31;;;;;;;1.90;1.60;;;;;;;;;;6244513;23;20267;-85
2023/06/14 03:40:00;;;;;;;2.20;1.20;;;;;;;;;;6243712;23;20283;-85
2023/06/14 03:42:29;;;;;;;0.87;0.87;;;;;;;;;;6244246;23;20206;-84
2023/06/14 03:45:00;;;;;;;0.93;0.93;;;;;;;;;;6244226;23;20217;-84
2023/06/14 03:47:28;;;;;;;1.50;1.40;;;;;;;;;;6244092;23;20204;-84
2023/06/14 03:49:57;;;;;;;3.10;2.43;;;;;;;;;;6243605;23;20190;-84
2023/06/14 03:52:26;;;;;;;1.30;1.20;;;;;;;;;;6244182;23;20261;-84
2023/06/14 03:54:56;;;;;;;2.30;1.83;;;;;;;;;;6244079;23;20178;-84
2023/06/14 03:57:45;;;;;;;1.00;1.00;;;;;;;;;;6243688;23;20247;-84
2023/06/14 04:00:15;;;;;;;1.00;0.83;;;;;;;;;;6244211;23;20180;-84
2023/06/14 04:02:45;;;;;;;1.40;1.30;;;;;;;;;;6244269;23;20244;-84
2023/06/14 04:05:13;;;;;;;0.60;0.60;;;;;;;;;;6244164;23;20225;-83
2023/06/14 04:07:44;;;;;;;0.50;0.50;;;;;;;;;;6243738;23;20196;-83
2023/06/14 04:10:15;;;;;;;1.60;0.97;;;;;;;;;;6244290;23;20201;-83
2023/06/14 04:12:43;;;;;;;1.53;1.43;;;;;;;;;;6243613;23;20184;-83
2023/06/14 04:15:12;;;;;;;1.53;1.10;;;;;;;;;;6243084;23;20174;-83
2023/06/14 04:17:48;;;;;;;0.63;0.63;;;;;;;;;;6243647;23;20165;-83
2023/06/14 04:20:17;;;;;;;1.90;1.80;;;;;;;;;;6243975;23;20175;-83
2023/06/14 04:22:45;;;;;;;0.50;0.50;;;;;;;;;;6243779;23;20180;-83
2023/06/14 04:25:15;;;;;;;2.80;1.90;;;;;;;;;;6243897;23;20245;-83
2023/06/14 04:27:52;;;;;;;8.17;2.30;;;;;;;;;;6243536;22;20235;-83
2023/06/14 04:30:21;;;;;;;0.80;0.80;;;;;;;;;;6244212;23;20235;-83
2023/06/14 04:32:53;;;;;;;1.13;1.13;;;;;;;;;;6245741;23;20226;-83
2023/06/14 04:35:23;;;;;;;3.50;1.80;;;;;;;;;;6246057;23;20178;-83
2023/06/14 04:37:53;;;;;;;1.60;1.50;;;;;;;;;;6246010;23;20175;-83
2023/06/14 04:40:23;;;;;;;1.00;1.00;;;;;;;;;;6245208;23;20230;-83
2023/06/14 04:42:52;;;;;;;0.83;0.83;;;;;;;;;;6245926;23;20186;-83
2023/06/14 04:45:24;;;;;;;2.27;1.17;;;;;;;;;;6246013;23;20170;-83
2023/06/14 04:47:57;;;;;;;1.00;0.90;;;;;;;;;;6245659;23;20197;-83
2023/06/14 04:50:26;;;;;;;4.37;1.57;;;;;;;;;;6246075;23;20181;-83
2023/06/14 04:52:55;;;;;;;2.17;1.87;;;;;;;;;;6245808;23;20173;-83
2023/06/14 04:55:25;;;;;;;1.10;1.03;;;;;;;;;;6245785;23;20170;-83
2023/06/14 04:57:54;;;;;;;0.70;0.70;;;;;;;;;;6245535;23;20201;-83
2023/06/14 05:00:23;;;;;;;1.87;1.77;;;;;;;;;;6246344;23;20178;-83
2023/06/14 05:02:53;;;;;;;0.83;0.83;;;;;;;;;;6245951;23;20200;-83
2023/06/14 05:05:22;;;;;;;1.67;1.57;;;;;;;;;;6245712;23;20179;-83
2023/06/14 05:07:50;;;;;;;0.60;0.60;;;;;;;;;;6245183;23;20198;-83
2023/06/14 05:10:18;;;;;;;0.90;0.90;;;;;;;;;;6246248;23;20176;-83
2023/06/14 05:12:52;;;;;;;4.73;1.80;;;;;;;;;;6245412;23;20181;-83
2023/06/14 05:15:26;;;;;;;2.23;1.47;;;;;;;;;;6245277;23;20174;-83
2023/06/14 05:17:55;;;;;;;1.37;1.37;;;;;;;;;;6245407;23;20172;-83
2023/06/14 05:20:26;;;;;;;1.20;1.10;;;;;;;;;;6245740;23;20213;-84
2023/06/14 05:22:56;;;;;;;15.70;1.77;;;;;;;;;;6244981;23;20174;-83
2023/06/14 05:25:25;;;;;;;2.10;1.17;;;;;;;;;;6245559;23;20208;-83
2023/06/14 05:27:55;;;;;;;1.30;1.20;;;;;;;;;;6245537;22;20201;-83
2023/06/14 05:30:23;;;;;;;1.33;1.23;;;;;;;;;;6245294;23;20185;-82
2023/06/14 05:32:52;;;;;;;0.83;0.83;;;;;;;;;;6244809;23;20270;-83
2023/06/14 05:35:23;;;;;;;3.40;2.10;;;;;;;;;;6245543;23;20208;-83
2023/06/14 05:37:51;;;;;;;2.10;1.73;;;;;;;;;;6245119;23;20274;-83
2023/06/14 05:40:20;;;;;;;6.23;1.20;;;;;;;;;;6245644;23;20234;-82
2023/06/14 05:42:51;;;;;;;1.53;1.43;;;;;;;;;;6244935;23;20258;-82
2023/06/14 05:45:21;;;;;;;1.67;1.57;;;;;;;;;;6245024;23;20171;-83
2023/06/14 05:47:50;;;;;;;1.37;1.27;;;;;;;;;;6245092;23;20199;-84
2023/06/14 05:50:18;;;;;;;1.33;1.23;;;;;;;;;;6244780;23;20171;-83
2023/06/14 05:52:47;;;;;;;1.13;1.10;;;;;;;;;;6245126;23;20258;-83
2023/06/14 05:55:17;;;;;;;3.90;1.10;;;;;;;;;;6245033;23;20170;-83
2023/06/14 05:57:47;;;;;;;7.33;2.73;;;;;;;;;;6244585;23;20181;-83
2023/06/14 06:00:17;;;;;;;4.60;1.80;;;;;;;;;;6245655;23;20183;-83
2023/06/14 06:02:47;;;;;;;2.77;2.07;;;;;;;;;;6245379;23;20171;-83
2023/06/14 06:05:16;;;;;;;1.63;1.53;;;;;;;;;;6245226;23;20207;-83
2023/06/14 06:07:46;;;;;;;6.27;2.10;;;;;;;;;;6244580;23;20247;-83
2023/06/14 06:10:14;;;;;;;1.63;1.53;;;;;;;;;;6245164;23;20203;-82
2023/06/14 06:12:43;;;;;;;2.50;2.30;;;;;;;;;;6245430;23;20186;-78
2023/06/14 06:15:12;;;;;;;1.70;1.43;;;;;;;;;;6244161;23;20178;-81
2023/06/14 06:17:42;;;;;;;4.73;2.33;;;;;;;;;;6245103;23;20249;-82
2023/06/14 06:20:28;;;;;;;1.73;1.60;;;;;;;;;;6245095;23;20198;-83
2023/06/14 06:22:58;;;;;;;1.43;1.20;;;;;;;;;;6244665;23;20212;-83
2023/06/14 06:25:27;;;;;;;1.37;1.27;;;;;;;;;;6244491;23;20188;-82
2023/06/14 06:27:57;;;;;;;7.83;1.07;;;;;;;;;;6244750;22;20278;-82
2023/06/14 06:30:25;;;;;;;0.90;0.90;;;;;;;;;;6244725;23;20279;-83
2023/06/14 06:32:56;;;;;;;2.87;1.30;;;;;;;;;;6239951;23;20232;-83
2023/06/14 06:35:26;;;;;;;2.57;1.77;;;;;;;;;;6240347;23;20175;-84
2023/06/14 06:37:58;;;;;;;1.60;1.60;;;;;;;;;;6243982;23;20178;-84
2023/06/14 06:40:28;;;;;;;1.13;1.13;;;;;;;;;;6241157;23;20208;-84
2023/06/14 06:42:57;;;;;;;1.70;1.60;;;;;;;;;;6238533;23;20269;-84
2023/06/14 06:45:25;;;;;;;1.00;1.00;;;;;;;;;;6238136;23;20196;-84
2023/06/14 06:47:55;;;;;;;2.60;2.00;;;;;;;;;;6237372;23;20181;-84
2023/06/14 06:50:24;;;;;;;1.97;1.77;;;;;;;;;;6237289;23;20251;-84
2023/06/14 06:52:55;;;;;;;12.50;2.00;;;;;;;;;;6237085;23;20237;-84
2023/06/14 06:55:23;;;;;;;1.90;1.60;;;;;;;;;;6237634;23;20185;-84
2023/06/14 06:57:53;;;;;;;2.53;2.17;;;;;;;;;;6237480;23;20212;-84
2023/06/14 07:00:23;;;;;;;1.40;1.30;;;;;;;;;;6238344;23;20163;-84
2023/06/14 07:02:55;;;;;;;4.67;2.67;;;;;;;;;;6237706;23;20181;-84
2023/06/14 07:05:24;;;;;;;1.60;1.50;;;;;;;;;;6241890;23;20184;-83
2023/06/14 07:07:56;;;;;;;10.33;2.20;;;;;;;;;;6240876;23;20178;-84
2023/06/14 07:10:26;;;;;;;2.73;2.50;;;;;;;;;;6241160;23;20199;-84
2023/06/14 07:12:55;;;;;;;1.07;1.07;;;;;;;;;;6236405;23;20261;-83
2023/06/14 07:15:23;;;;;;;1.37;1.27;;;;;;;;;;6236654;23;20192;-84
2023/06/14 07:17:52;;;;;;;1.80;1.30;;;;;;;;;;6237971;23;20191;-84
2023/06/14 07:20:24;;;;;;;1.33;1.23;;;;;;;;;;6241539;23;20181;-84
2023/06/14 07:22:53;;;;;;;2.13;1.60;;;;;;;;;;6241863;23;20178;-83
2023/06/14 07:25:23;;;;;;;1.97;1.50;;;;;;;;;;6241020;23;20176;-83
2023/06/14 07:27:51;;;;;;;4.53;1.70;;;;;;;;;;6241031;22;20224;-83
2023/06/14 07:30:20;;;;;;;2.07;1.77;;;;;;;;;;6240730;23;20200;-83
2023/06/14 07:32:49;;;;;;;1.67;1.57;;;;;;;;;;6241128;23;20218;-83
2023/06/14 07:35:18;;;;;;;1.37;1.27;;;;;;;;;;6241423;23;20185;-83
2023/06/14 07:37:46;;;;;;;3.50;2.60;;;;;;;;;;6242101;23;20266;-83
2023/06/14 07:40:15;;;;;;;0.83;0.83;;;;;;;;;;6240554;23;20213;-82
2023/06/14 07:42:45;;;;;;;1.97;1.87;;;;;;;;;;6241057;23;20246;-83
2023/06/14 07:45:15;;;;;;;2.87;1.17;;;;;;;;;;6240515;23;20182;-83
2023/06/14 07:47:44;;;;;;;3.07;2.40;;;;;;;;;;6241383;23;20187;-84
2023/06/14 07:50:13;;;;;;;2.03;1.83;;;;;;;;;;6240910;23;20232;-85
2023/06/14 07:52:43;;;;;;;4.10;1.63;;;;;;;;;;6241847;23;20269;-84
2023/06/14 07:55:12;;;;;;;1.50;1.40;;;;;;;;;;6240404;23;20195;-85
2023/06/14 07:57:42;;;;;;;4.90;1.87;;;;;;;;;;6237387;23;20185;-85
2023/06/14 08:00:15;;;;;;;2.40;2.20;;;;;;;;;;6237057;23;20195;-84
2023/06/14 08:02:44;;;;;;;4.43;2.50;;;;;;;;;;6238089;23;20180;-85
2023/06/14 08:05:12;;;;;;;3.47;3.10;;;;;;;;;;6236824;23;20266;-84
2023/06/14 08:07:42;;;;;;;2.00;1.80;;;;;;;;;;6238818;23;20188;-85
2023/06/14 08:10:11;;;;;;;3.80;2.40;;;;;;;;;;6240935;23;20201;-85
2023/06/14 08:12:39;;;;;;;1.93;1.83;;;;;;;;;;6243367;23;20223;-84
2023/06/14 08:15:08;;;;;;;3.40;2.30;;;;;;;;;;6243848;23;20196;-83
2023/06/14 08:17:43;;;;;;;5.03;2.80;;;;;;;;;;6244085;23;20180;-83
2023/06/14 08:20:13;;;;;;;2.00;1.13;;;;;;;;;;6242953;23;20180;-84
2023/06/14 08:22:42;;;;;;;3.33;1.70;;;;;;;;;;6244975;23;20173;-83
2023/06/14 08:25:12;;;;;;;1.60;1.50;;;;;;;;;;6245013;23;20176;-83
2023/06/14 08:27:41;;;;;;;3.00;2.13;;;;;;;;;;6244424;22;20201;-84
2023/06/14 08:30:12;;;;;;;1.73;1.43;;;;;;;;;;6245866;23;20196;-84
2023/06/14 08:32:40;;;;;;;1.80;1.70;;;;;;;;;;6244495;23;20208;-83
2023/06/14 08:35:12;;;;;;;2.20;1.90;;;;;;;;;;6245678;23;20171;-84
2023/06/14 08:37:41;;;;;;;2.90;2.23;;;;;;;;;;6245066;23;20173;-84
2023/06/14 08:40:19;;;;;;;4.50;2.50;;;;;;;;;;6244637;23;20229;-84
2023/06/14 08:42:49;;;;;;;3.33;2.97;;;;;;;;;;6244419;23;20189;-84
2023/06/14 08:45:18;;;;;;;2.57;1.87;;;;;;;;;;6244485;23;20178;-85
2023/06/14 08:47:51;;;;;;;1.50;1.37;;;;;;;;;;6244736;23;20185;-85
2023/06/14 08:50:26;;;;;;;1.77;1.67;;;;;;;;;;6242125;23;20191;-84
2023/06/14 08:52:58;;;;;;;2.77;2.10;;;;;;;;;;6239935;23;20174;-83
2023/06/14 08:55:28;;;;;;;3.90;1.70;;;;;;;;;;6240383;23;20201;-84
2023/06/14 08:57:59;;;;;;;2.10;1.27;;;;;;;;;;6239431;23;20173;-84
2023/06/14 09:00:30;;;;;;;2.23;2.03;;;;;;;;;;6242742;23;20253;-85
2023/06/14 09:03:02;;;;;;;1.57;1.47;;;;;;;;;;6242405;23;20206;-84
2023/06/14 09:05:36;;;;;;;3.17;2.60;;;;;;;;;;6239152;23;20168;-82
2023/06/14 09:08:05;;;;;;;3.47;2.30;;;;;;;;;;6243241;23;20179;-84
2023/06/14 09:10:36;;;;;;;1.90;1.70;;;;;;;;;;6243306;23;20207;-82
2023/06/14 09:13:06;;;;;;;1.73;1.63;;;;;;;;;;6242821;23;20235;-82
2023/06/14 09:15:36;;;;;;;4.57;1.73;;;;;;;;;;6241997;23;20179;-84
2023/06/14 09:18:07;;;;;;;1.60;1.50;;;;;;;;;;6241756;23;20174;-83
2023/06/14 09:20:37;;;;;;;3.07;1.73;;;;;;;;;;6242817;23;20179;-82
2023/06/14 09:23:08;;;;;;;1.77;1.57;;;;;;;;;;6242133;23;20171;-82
2023/06/14 09:25:47;;;;;;;3.90;1.97;;;;;;;;;;6243771;23;20176;-81
2023/06/14 09:28:16;;;;;;;2.47;2.00;;;;;;;;;;6243378;22;20220;-84
2023/06/14 09:30:48;;;;;;;4.77;1.63;;;;;;;;;;6245144;23;20244;-85
2023/06/14 09:33:22;;;;;;;1.60;1.47;;;;;;;;;;6243188;23;20179;-85
2023/06/14 09:35:56;;;;;;;1.83;1.67;;;;;;;;;;6240482;23;20177;-84
2023/06/14 09:38:26;;;;;;;6.33;1.97;;;;;;;;;;6239163;23;20186;-83
2023/06/14 09:40:57;;;;;;;2.17;1.77;;;;;;;;;;6240815;23;20174;-84
2023/06/14 09:43:27;;;;;;;2.20;1.50;;;;;;;;;;6240992;23;20263;-84
2023/06/14 09:45:56;;;;;;;1.53;1.43;;;;;;;;;;6240368;23;20180;-84
2023/06/14 09:48:25;;;;;;;5.73;1.50;;;;;;;;;;6239697;23;20184;-84
2023/06/14 09:50:57;;;;;;;1.73;1.53;;;;;;;;;;6238613;23;20192;-83
2023/06/14 09:53:27;;;;;;;2.87;2.03;;;;;;;;;;6241455;23;20172;-83
2023/06/14 09:55:56;;;;;;;1.57;1.47;;;;;;;;;;6243803;23;20235;-83
2023/06/14 09:58:28;;;;;;;1.00;1.00;;;;;;;;;;6243955;23;20204;-82
2023/06/14 10:00:57;;;;;;;1.10;1.10;;;;;;;;;;6242643;23;20209;-82
2023/06/14 10:03:29;;;;;;;1.90;1.10;;;;;;;;;;6244184;23;20196;-83
2023/06/14 10:06:11;;;;;;;3.30;1.63;;;;;;;;;;6243043;23;20181;-82
2023/06/14 10:08:40;;;;;;;1.00;1.00;;;;;;;;;;6240878;23;20188;-83
2023/06/14 10:11:10;;;;;;;0.90;0.90;;;;;;;;;;6241955;23;20185;-83
2023/06/14 10:13:39;;;;;;;1.13;1.07;;;;;;;;;;6242801;23;20211;-83
2023/06/14 10:16:12;;;;;;;0.87;0.87;;;;;;;;;;6244284;23;20223;-83
2023/06/14 10:18:45;;;;;;;2.47;1.70;;;;;;;;;;6242343;23;20200;-82
2023/06/14 10:21:20;;;;;;;0.97;0.97;;;;;;;;;;6244222;23;20209;-83
2023/06/14 10:24:18;;;;;;;1.20;1.13;;;;;;;;;;6243257;23;20201;-83
2023/06/14 10:26:53;;;;;;;2.90;1.40;;;;;;;;;;6235828;22;20192;-82
2023/06/14 10:29:25;;;;;;;1.60;1.33;;;;;;;;;;6244072;23;20201;-82
2023/06/14 10:31:58;;;;;;;4.73;1.40;;;;;;;;;;6240779;23;20219;-83
2023/06/14 10:34:28;;;;;;;2.80;1.23;;;;;;;;;;6240923;23;20215;-83
2023/06/14 10:37:08;;;;;;;1.27;1.17;;;;;;;;;;6241970;23;20243;-85
2023/06/14 10:39:40;;;;;;;2.30;2.10;;;;;;;;;;6243051;23;20211;-85
2023/06/14 10:42:12;;;;;;;2.00;1.87;;;;;;;;;;6241373;23;20204;-85
2023/06/14 10:44:45;;;;;;;1.83;1.63;;;;;;;;;;6241201;23;20271;-83
2023/06/14 10:47:30;;;;;;;1.70;1.57;;;;;;;;;;6235150;23;20229;-84
2023/06/14 10:50:05;;;;;;;2.10;1.10;;;;;;;;;;6240425;23;20184;-85
2023/06/14 10:52:41;;;;;;;1.20;1.10;;;;;;;;;;6235653;23;20222;-82
2023/06/14 10:55:18;;;;;;;1.77;1.50;;;;;;;;;;6235211;23;20217;-83
2023/06/14 10:57:51;;;;;;;6.43;1.60;;;;;;;;;;6234926;23;20174;-84
2023/06/14 11:00:26;;;;;;;2.30;1.50;;;;;;;;;;6236452;23;20256;-83
2023/06/14 11:03:16;;;;;;;1.50;1.40;;;;;;;;;;6246605;23;20200;-90
2023/06/14 11:05:53;;;;;;;2.23;1.97;;;;;;;;;;6245278;23;20177;-93
2023/06/14 11:08:58;;;;;;;1.43;1.17;;;;;;;;;;6239890;23;20171;-90
2023/06/14 11:11:31;;;;;;;2.00;1.80;;;;;;;;;;6243563;23;20201;-90
2023/06/14 11:14:06;;;;;;;3.90;1.67;;;;;;;;;;6240952;23;20182;-89
2023/06/14 11:16:38;;;;;;;4.70;1.80;;;;;;;;;;6243444;23;20174;-91
2023/06/14 11:19:11;;;;;;;0.97;0.97;;;;;;;;;;6244061;23;20175;-92
2023/06/14 11:21:42;;;;;;;3.47;2.17;;;;;;;;;;6243939;23;20178;-91
2023/06/14 11:24:13;;;;;;;2.53;1.60;;;;;;;;;;6243692;23;20183;-91
2023/06/14 11:26:45;;;;;;;1.17;1.17;;;;;;;;;;6242722;22;20197;-91
2023/06/14 11:29:13;;;;;;;3.80;1.53;;;;;;;;;;6240245;23;20208;-85
2023/06/14 11:31:45;;;;;;;2.10;1.87;;;;;;;;;;6243363;23;20192;-88
2023/06/14 11:34:14;;;;;;;3.13;2.93;;;;;;;;;;6244127;23;20169;-87
2023/06/14 11:36:43;;;;;;;1.20;1.10;;;;;;;;;;6243284;23;20249;-90
2023/06/14 11:39:13;;;;;;;1.57;1.30;;;;;;;;;;6241492;23;20208;-90
2023/06/14 11:41:42;;;;;;;1.53;1.40;;;;;;;;;;6245249;23;20173;-90
2023/06/14 11:44:11;;;;;;;2.40;1.37;;;;;;;;;;6243200;23;20171;-90
2023/06/14 11:46:40;;;;;;;5.73;1.70;;;;;;;;;;6243077;23;20214;-89
2023/06/14 11:49:09;;;;;;;1.40;1.30;;;;;;;;;;6243746;23;20177;-90
2023/06/14 11:51:38;;;;;;;1.37;0.77;;;;;;;;;;6244329;23;20207;-89
2023/06/14 11:54:09;;;;;;;2.10;1.23;;;;;;;;;;6244081;23;20179;-89
2023/06/14 11:56:39;;;;;;;1.07;0.97;;;;;;;;;;6244540;23;20182;-90
2023/06/14 11:59:08;;;;;;;1.27;0.90;;;;;;;;;;6243764;23;20185;-89
2023/06/14 12:01:40;;;;;;;2.17;1.37;;;;;;;;;;6244480;23;20190;-87
2023/06/14 12:04:09;;;;;;;3.07;2.77;;;;;;;;;;6244380;23;20173;-87
2023/06/14 12:06:39;;;;;;;1.63;1.53;;;;;;;;;;6244065;23;20181;-87
2023/06/14 12:09:12;;;;;;;1.50;1.40;;;;;;;;;;6243731;23;20188;-88
2023/06/14 12:11:43;;;;;;;1.70;1.60;;;;;;;;;;6242950;23;20196;-86
2023/06/14 12:14:12;;;;;;;3.20;1.43;;;;;;;;;;6243328;23;20211;-87
2023/06/14 12:16:41;;;;;;;4.20;3.90;;;;;;;;;;6241755;23;20185;-87
2023/06/14 12:19:11;;;;;;;2.27;1.33;;;;;;;;;;6244344;23;20173;-87
2023/06/14 12:21:40;;;;;;;2.50;1.57;;;;;;;;;;6244265;23;20176;-87
2023/06/14 12:24:11;;;;;;;1.20;1.10;;;;;;;;;;6244138;23;20203;-87
2023/06/14 12:26:41;;;;;;;1.10;1.10;;;;;;;;;;6243337;22;20185;-89
2023/06/14 12:29:13;;;;;;;1.40;1.30;;;;;;;;;;6245543;23;20171;-88
2023/06/14 12:31:42;;;;;;;1.30;1.20;;;;;;;;;;6246342;23;20189;-85
2023/06/14 12:34:12;;;;;;;1.03;0.83;;;;;;;;;;6244163;23;20236;-86
2023/06/14 12:36:46;;;;;;;0.63;0.63;;;;;;;;;;6244064;23;20189;-86
2023/06/14 12:39:14;;;;;;;0.90;0.90;;;;;;;;;;6242679;23;20238;-86
2023/06/14 12:41:47;;;;;;;1.47;1.37;;;;;;;;;;6243672;23;20181;-86
2023/06/14 12:44:17;;;;;;;1.20;1.10;;;;;;;;;;6243158;23;20200;-87
2023/06/14 12:46:45;;;;;;;2.40;1.00;;;;;;;;;;6243531;23;20178;-87
2023/06/14 12:49:14;;;;;;;1.63;1.50;;;;;;;;;;6243486;23;20209;-87
2023/06/14 12:51:43;;;;;;;2.00;1.40;;;;;;;;;;6244538;23;20176;-87
2023/06/14 12:54:14;;;;;;;4.57;1.60;;;;;;;;;;6245986;23;20220;-87
2023/06/14 12:56:47;;;;;;;0.83;0.80;;;;;;;;;;6246330;23;20177;-87
2023/06/14 12:59:18;;;;;;;1.73;1.53;;;;;;;;;;6244899;23;20166;-88
2023/06/14 13:01:50;;;;;;;3.17;1.23;;;;;;;;;;6246001;23;20209;-88
2023/06/14 13:04:24;;;;;;;4.50;1.60;;;;;;;;;;6243991;23;20181;-88
2023/06/14 13:06:52;;;;;;;1.43;1.00;;;;;;;;;;6245703;23;20225;-88
2023/06/14 13:09:22;;;;;;;1.60;1.50;;;;;;;;;;6244929;23;20179;-88
2023/06/14 13:11:54;;;;;;;1.00;1.00;;;;;;;;;;6245595;23;20211;-87
2023/06/14 13:14:24;;;;;;;4.13;1.17;;;;;;;;;;6245177;23;20223;-88
2023/06/14 13:16:56;;;;;;;3.00;2.63;;;;;;;;;;6245186;23;20250;-88
2023/06/14 13:19:24;;;;;;;1.07;0.97;;;;;;;;;;6245432;23;20179;-88
2023/06/14 13:21:53;;;;;;;1.10;1.00;;;;;;;;;;6245227;23;20177;-88
2023/06/14 13:24:23;;;;;;;1.10;1.00;;;;;;;;;;6244980;23;20240;-87
2023/06/14 13:26:52;;;;;;;5.43;1.40;;;;;;;;;;6245518;22;20196;-88
2023/06/14 13:29:27;;;;;;;1.90;1.63;;;;;;;;;;6245417;23;20219;-88
2023/06/14 13:31:55;;;;;;;0.57;0.57;;;;;;;;;;6245403;23;20225;-88
2023/06/14 13:34:24;;;;;;;1.03;0.87;;;;;;;;;;6244547;23;20191;-87
2023/06/14 13:36:53;;;;;;;2.70;1.93;;;;;;;;;;6245586;23;20177;-88
2023/06/14 13:39:27;;;;;;;1.10;1.10;;;;;;;;;;6245244;23;20307;-87
2023/06/14 13:42:00;;;;;;;1.40;0.80;;;;;;;;;;6245204;23;20175;-87
2023/06/14 13:44:29;;;;;;;2.50;1.67;;;;;;;;;;6245637;23;20197;-88
2023/06/14 13:47:00;;;;;;;2.40;1.40;;;;;;;;;;6245612;23;20178;-88
2023/06/14 13:49:29;;;;;;;1.60;1.50;;;;;;;;;;6245328;23;20182;-85
2023/06/14 13:52:00;;;;;;;1.10;0.93;;;;;;;;;;6244910;23;20192;-89
2023/06/14 13:54:29;;;;;;;2.10;1.30;;;;;;;;;;6245420;23;20258;-88
2023/06/14 13:56:58;;;;;;;0.60;0.60;;;;;;;;;;6245361;23;20167;-88
2023/06/14 13:59:27;;;;;;;1.77;1.40;;;;;;;;;;6245428;23;20184;-88
2023/06/14 14:01:56;;;;;;;2.13;1.10;;;;;;;;;;6244971;23;20174;-90
2023/06/14 14:04:26;;;;;;;0.87;0.87;;;;;;;;;;6244350;23;20174;-89
2023/06/14 14:06:55;;;;;;;0.90;0.90;;;;;;;;;;6245344;23;20252;-89
2023/06/14 14:09:24;;;;;;;1.20;1.10;;;;;;;;;;6245368;23;20285;-89
2023/06/14 14:11:53;;;;;;;1.10;1.10;;;;;;;;;;6245514;23;20175;-89
2023/06/14 14:14:22;;;;;;;1.20;1.13;;;;;;;;;;6245160;23;20231;-89
2023/06/14 14:16:53;;;;;;;3.33;1.00;;;;;;;;;;6244774;23;20173;-89
2023/06/14 14:19:24;;;;;;;1.60;1.20;;;;;;;;;;6245855;23;20180;-91
2023/06/14 14:21:56;;;;;;;3.70;1.00;;;;;;;;;;6245527;23;20233;-90
2023/06/14 14:24:25;;;;;;;1.93;1.77;;;;;;;;;;6245118;23;20187;-90
2023/06/14 14:26:54;;;;;;;2.10;1.13;;;;;;;;;;6245776;22;20186;-91
2023/06/14 14:29:28;;;;;;;1.50;1.40;;;;;;;;;;6245153;23;20205;-91
2023/06/14 14:31:57;;;;;;;1.17;1.07;;;;;;;;;;6245096;23;20175;-88
2023/06/14 14:34:27;;;;;;;1.53;1.43;;;;;;;;;;6244270;23;20189;-89
2023/06/14 14:36:56;;;;;;;1.90;1.13;;;;;;;;;;6245038;23;20175;-89
2023/06/14 14:39:27;;;;;;;2.20;0.90;;;;;;;;;;6245179;23;20208;-88
2023/06/14 14:41:58;;;;;;;4.87;1.57;;;;;;;;;;6244549;23;20181;-89
2023/06/14 14:44:27;;;;;;;1.10;1.00;;;;;;;;;;6244926;23;20207;-89
2023/06/14 14:46:57;;;;;;;2.47;1.47;;;;;;;;;;6244654;23;20172;-86
2023/06/14 14:49:27;;;;;;;4.60;1.60;;;;;;;;;;6244176;23;20182;-86
2023/06/14 14:51:57;;;;;;;3.60;1.40;;;;;;;;;;6244349;23;20183;-86
2023/06/14 14:54:42;;;;;;;1.13;1.03;;;;;;;;;;6244086;23;20192;-86
2023/06/14 14:57:10;;;;;;;1.87;1.13;;;;;;;;;;6244783;23;20178;-86
2023/06/14 14:59:39;;;;;;;2.10;1.23;;;;;;;;;;6243788;23;20244;-86
2023/06/14 15:02:07;;;;;;;1.13;1.03;;;;;;;;;;6244000;23;20196;-84